Time;durP1;ratioP1;P1;durP2;ratioP2;P2;SDS_P1;SDS_P2;PMS_P1;PMS_P2;Temp;Humidity;BMP_temperature;BMP_pressure;BME280_temperature;BME280_humidity;BME280_pressure;Samples;Min_cycle;Max_cycle;Signal;HPM_P1;HPM_P2
2020/12/08 00:01:30;;;;;;;13.10;10.10;;;5.00;99.90;;;;;;5071864;28;20184;-60
2020/12/08 00:03:55;;;;;;;12.87;9.30;;;4.90;99.90;;;;;;5076896;28;20189;-59
2020/12/08 00:06:21;;;;;;;12.23;9.17;;;5.10;99.90;;;;;;5069350;28;20259;-59
2020/12/08 00:08:46;;;;;;;13.47;9.70;;;5.10;99.90;;;;;;5069077;28;20705;-59
2020/12/08 00:11:16;;;;;;;13.53;10.47;;;4.90;99.90;;;;;;5069469;28;20292;-59
2020/12/08 00:13:45;;;;;;;14.27;9.90;;;4.90;99.90;;;;;;5069389;28;20248;-59
2020/12/08 00:16:12;;;;;;;14.20;10.90;;;5.10;99.90;;;;;;5076390;28;20193;-59
2020/12/08 00:18:39;;;;;;;14.77;10.55;;;5.00;99.90;;;;;;5073145;28;20178;-59
2020/12/08 00:21:05;;;;;;;12.45;9.73;;;5.00;99.90;;;;;;5069003;28;20552;-60
2020/12/08 00:23:30;;;;;;;14.60;9.40;;;5.10;99.90;;;;;;5069241;28;20634;-59
2020/12/08 00:25:56;;;;;;;13.43;9.90;;;5.00;99.90;;;;;;5069158;28;20509;-60
2020/12/08 00:28:22;;;;;;;13.33;10.70;;;5.00;99.90;;;;;;5057045;28;20809;-60
2020/12/08 00:30:48;;;;;;;15.73;11.40;;;5.10;99.90;;;;;;5079729;28;20185;-60
2020/12/08 00:33:13;;;;;;;14.67;10.97;;;5.00;99.90;;;;;;5068649;28;20294;-59
2020/12/08 00:35:39;;;;;;;15.90;11.33;;;5.20;99.90;;;;;;5068866;28;20455;-60
2020/12/08 00:38:05;;;;;;;12.00;9.73;;;5.00;99.90;;;;;;5068641;28;20204;-60
2020/12/08 00:40:30;;;;;;;13.20;10.30;;;5.10;99.90;;;;;;5068947;28;20190;-60
2020/12/08 00:42:56;;;;;;;15.43;12.17;;;4.50;99.90;;;;;;5068785;28;20443;-60
2020/12/08 00:45:22;;;;;;;13.75;10.82;;;5.00;99.90;;;;;;5068670;28;20225;-59
2020/12/08 00:47:47;;;;;;;15.40;10.53;;;5.00;99.90;;;;;;5068356;28;20185;-59
2020/12/08 00:50:13;;;;;;;16.20;10.67;;;4.90;99.90;;;;;;5068139;28;20189;-59
2020/12/08 00:52:39;;;;;;;14.37;10.57;;;4.90;99.90;;;;;;5068634;28;20322;-60
2020/12/08 00:55:06;;;;;;;14.73;11.53;;;5.30;99.90;;;;;;5068811;28;20268;-59
2020/12/08 00:57:31;;;;;;;16.08;11.65;;;5.10;99.90;;;;;;5068348;28;20188;-59
2020/12/08 00:59:57;;;;;;;14.57;10.83;;;5.10;99.90;;;;;;5074933;28;20189;-59
2020/12/08 01:02:22;;;;;;;12.93;9.80;;;5.10;99.90;;;;;;5069065;28;20181;-59
2020/12/08 01:04:48;;;;;;;15.77;11.40;;;5.10;99.90;;;;;;5067962;28;20200;-59
2020/12/08 01:07:15;;;;;;;15.43;11.17;;;5.40;99.90;;;;;;5068250;28;20185;-59
2020/12/08 01:09:40;;;;;;;14.43;10.57;;;5.20;99.90;;;;;;5067511;28;20185;-59
2020/12/08 01:12:06;;;;;;;13.30;10.80;;;5.20;99.90;;;;;;5072727;28;20559;-59
2020/12/08 01:14:32;;;;;;;15.27;11.43;;;5.40;99.90;;;;;;5074910;28;20211;-59
2020/12/08 01:16:59;;;;;;;13.67;10.33;;;5.50;99.90;;;;;;5068539;28;20193;-60
2020/12/08 01:19:26;;;;;;;14.65;10.68;;;5.20;99.90;;;;;;5067651;28;20411;-59
2020/12/08 01:21:53;;;;;;;14.45;11.60;;;5.40;99.90;;;;;;5068400;28;20236;-60
2020/12/08 01:24:19;;;;;;;15.02;11.23;;;5.40;99.90;;;;;;5068213;28;20192;-57
2020/12/08 01:26:45;;;;;;;14.00;10.38;;;5.30;99.90;;;;;;5055905;28;20177;-60
2020/12/08 01:29:10;;;;;;;15.33;11.80;;;5.30;99.90;;;;;;5067252;28;20182;-60
2020/12/08 01:31:36;;;;;;;15.10;11.57;;;5.30;99.90;;;;;;5060918;28;21194;-60
2020/12/08 01:34:02;;;;;;;14.80;11.07;;;5.50;99.90;;;;;;5067239;28;20185;-59
2020/12/08 01:36:27;;;;;;;20.90;12.40;;;5.40;99.90;;;;;;5068129;28;20210;-59
2020/12/08 01:38:53;;;;;;;15.13;11.20;;;5.50;99.90;;;;;;5067661;28;20607;-59
2020/12/08 01:41:19;;;;;;;15.87;12.33;;;5.50;99.90;;;;;;5075582;28;20676;-60
2020/12/08 01:44:02;;;;;;;15.90;10.80;;;5.40;99.90;;;;;;5069266;28;20193;-59
2020/12/08 01:46:31;;;;;;;18.55;13.10;;;5.20;99.90;;;;;;5067194;28;20208;-59
2020/12/08 01:48:57;;;;;;;14.57;10.98;;;5.00;99.90;;;;;;5067020;28;20181;-60
2020/12/08 01:51:23;;;;;;;16.58;11.98;;;5.20;99.90;;;;;;5067548;28;20237;-59
2020/12/08 01:53:51;;;;;;;17.07;12.40;;;5.20;99.90;;;;;;5068060;28;20234;-57
2020/12/08 01:56:16;;;;;;;17.58;11.77;;;5.00;99.90;;;;;;5067855;28;20234;-60
2020/12/08 01:58:42;;;;;;;15.63;12.00;;;5.00;99.90;;;;;;5068036;28;20212;-60
2020/12/08 02:01:11;;;;;;;16.40;12.03;;;5.30;99.90;;;;;;5067615;28;20206;-60
2020/12/08 02:03:38;;;;;;;16.67;11.20;;;5.00;99.90;;;;;;5079697;28;20955;-59
2020/12/08 02:06:04;;;;;;;16.30;12.27;;;5.10;99.90;;;;;;5067092;28;20246;-60
2020/12/08 02:08:32;;;;;;;17.77;11.30;;;5.20;99.90;;;;;;5067387;28;20273;-60
2020/12/08 02:10:58;;;;;;;15.82;11.40;;;4.90;99.90;;;;;;5076917;28;20759;-59
2020/12/08 02:13:24;;;;;;;16.08;11.70;;;4.40;99.90;;;;;;5067930;28;20911;-59
2020/12/08 02:15:50;;;;;;;17.45;12.48;;;4.90;99.90;;;;;;5067657;28;20205;-59
2020/12/08 02:18:16;;;;;;;18.15;11.93;;;4.70;99.90;;;;;;5067009;28;20281;-59
2020/12/08 02:20:42;;;;;;;17.10;12.77;;;5.00;99.90;;;;;;5067311;28;20331;-60
2020/12/08 02:23:08;;;;;;;16.00;11.97;;;4.90;99.90;;;;;;5067461;28;20525;-60
2020/12/08 02:25:35;;;;;;;18.88;12.27;;;4.80;99.90;;;;;;5067160;28;20560;-60
2020/12/08 02:28:00;;;;;;;18.23;12.98;;;5.00;99.90;;;;;;5067498;28;20196;-59
2020/12/08 02:30:26;;;;;;;20.30;12.87;;;4.70;99.90;;;;;;5065963;28;20193;-59
2020/12/08 02:32:52;;;;;;;16.77;11.97;;;4.70;99.90;;;;;;5070809;28;20208;-58
2020/12/08 02:35:17;;;;;;;18.67;12.37;;;4.80;99.90;;;;;;5068300;28;20207;-58
2020/12/08 02:37:43;;;;;;;17.03;11.90;;;4.70;99.90;;;;;;5067507;28;20614;-59
2020/12/08 02:40:08;;;;;;;18.33;11.77;;;4.90;99.90;;;;;;5080103;28;20746;-59
2020/12/08 02:42:34;;;;;;;17.00;11.63;;;4.60;99.90;;;;;;5067037;28;20192;-58
2020/12/08 02:45:03;;;;;;;18.40;12.97;;;4.80;99.90;;;;;;5066889;28;20293;-58
2020/12/08 02:47:30;;;;;;;17.83;12.75;;;4.50;99.90;;;;;;5067257;28;20189;-59
2020/12/08 02:49:55;;;;;;;19.25;13.80;;;4.60;99.90;;;;;;5066950;28;20234;-59
2020/12/08 02:52:22;;;;;;;18.97;12.40;;;4.60;99.90;;;;;;5066973;28;20214;-59
2020/12/08 02:54:48;;;;;;;21.90;13.73;;;5.00;99.90;;;;;;5066744;28;20220;-60
2020/12/08 02:57:14;;;;;;;19.63;13.20;;;4.50;99.90;;;;;;5074623;28;20204;-59
2020/12/08 02:59:40;;;;;;;18.92;13.60;;;4.80;99.90;;;;;;5077454;28;20242;-58
2020/12/08 03:02:05;;;;;;;19.43;13.50;;;4.70;99.90;;;;;;5070781;28;20194;-58
2020/12/08 03:04:31;;;;;;;19.83;14.23;;;4.70;99.90;;;;;;5082119;28;20267;-59
2020/12/08 03:06:56;;;;;;;20.70;13.90;;;4.70;99.90;;;;;;5070641;28;20363;-59
2020/12/08 03:09:22;;;;;;;15.30;11.40;;;4.70;99.90;;;;;;5070642;28;20193;-59
2020/12/08 03:11:48;;;;;;;17.43;12.23;;;4.50;99.90;;;;;;5070090;28;20188;-59
2020/12/08 03:14:13;;;;;;;22.07;13.33;;;4.30;99.90;;;;;;5074776;28;20196;-59
2020/12/08 03:16:39;;;;;;;22.43;11.77;;;4.60;99.90;;;;;;5070764;28;20181;-59
2020/12/08 03:19:05;;;;;;;18.53;13.20;;;4.50;99.90;;;;;;5070955;28;20253;-59
2020/12/08 03:21:34;;;;;;;17.93;12.60;;;4.50;99.90;;;;;;5072070;28;20185;-59
2020/12/08 03:24:00;;;;;;;18.63;13.55;;;4.80;99.90;;;;;;5070304;28;20482;-59
2020/12/08 03:26:26;;;;;;;17.25;12.85;;;4.60;99.90;;;;;;5069760;28;20243;-59
2020/12/08 03:28:52;;;;;;;18.08;12.55;;;4.60;99.90;;;;;;5068215;28;20189;-59
2020/12/08 03:31:18;;;;;;;19.45;13.25;;;4.40;99.90;;;;;;5069718;28;20189;-59
2020/12/08 03:33:44;;;;;;;20.00;12.23;;;4.70;99.90;;;;;;5084528;28;20224;-59
2020/12/08 03:36:20;;;;;;;20.63;14.83;;;4.10;99.90;;;;;;5070296;28;20487;-59
2020/12/08 03:38:47;;;;;;;18.30;12.65;;;4.40;99.90;;;;;;5069982;28;20199;-59
2020/12/08 03:41:23;;;;;;;19.60;13.40;;;4.40;99.90;;;;;;5070046;28;20189;-59
2020/12/08 03:43:50;;;;;;;19.30;13.73;;;4.50;99.90;;;;;;5069831;28;20669;-58
2020/12/08 03:46:17;;;;;;;21.83;13.90;;;4.40;99.90;;;;;;5069925;28;20209;-59
2020/12/08 03:48:43;;;;;;;21.70;14.70;;;4.40;99.90;;;;;;5069469;28;20185;-59
2020/12/08 03:51:16;;;;;;;20.47;14.03;;;4.20;99.90;;;;;;5069989;28;20234;-59
2020/12/08 03:53:42;;;;;;;20.45;13.95;;;4.20;99.90;;;;;;5069710;28;20596;-59
2020/12/08 03:56:15;;;;;;;22.23;14.00;;;4.10;99.90;;;;;;5078602;28;20205;-59
2020/12/08 03:58:42;;;;;;;22.85;15.02;;;4.00;99.90;;;;;;5069555;28;21634;-59
2020/12/08 04:01:21;;;;;;;20.85;15.45;;;4.10;99.90;;;;;;5069598;28;20189;-60
2020/12/08 04:03:49;;;;;;;21.77;14.85;;;3.90;99.90;;;;;;5071173;28;20202;-59
2020/12/08 04:06:15;;;;;;;21.02;14.15;;;3.70;99.90;;;;;;5069250;28;20590;-59
2020/12/08 04:08:42;;;;;;;21.63;14.73;;;4.10;99.90;;;;;;5067260;28;20185;-59
2020/12/08 04:11:09;;;;;;;20.90;14.65;;;3.80;99.90;;;;;;5077615;28;20243;-60
2020/12/08 04:13:34;;;;;;;22.17;14.95;;;4.00;99.90;;;;;;5069269;28;20213;-60
2020/12/08 04:16:01;;;;;;;20.03;14.20;;;4.00;99.90;;;;;;5069268;28;20586;-59
2020/12/08 04:18:26;;;;;;;23.83;14.65;;;3.70;99.90;;;;;;5069442;28;20670;-60
2020/12/08 04:20:52;;;;;;;24.20;15.30;;;3.50;99.90;;;;;;5070690;28;20184;-60
2020/12/08 04:23:18;;;;;;;21.37;13.80;;;3.80;99.90;;;;;;5069288;28;20189;-59
2020/12/08 04:25:45;;;;;;;22.75;14.63;;;3.60;99.90;;;;;;5068911;28;20217;-59
2020/12/08 04:28:10;;;;;;;18.92;14.38;;;3.40;99.90;;;;;;5067502;28;20193;-59
2020/12/08 04:30:38;;;;;;;21.53;14.40;;;3.50;99.90;;;;;;5069056;28;20236;-60
2020/12/08 04:33:04;;;;;;;21.80;14.68;;;3.60;99.90;;;;;;5064307;28;20240;-59
2020/12/08 04:35:30;;;;;;;21.65;13.90;;;3.40;99.90;;;;;;5068457;28;20258;-59
2020/12/08 04:37:56;;;;;;;24.43;14.83;;;3.50;99.90;;;;;;5066053;28;20177;-60
2020/12/08 04:40:22;;;;;;;26.33;15.90;;;3.70;99.90;;;;;;5070185;28;20185;-59
2020/12/08 04:42:49;;;;;;;23.02;15.57;;;3.60;99.90;;;;;;5074912;28;20435;-59
2020/12/08 04:45:16;;;;;;;24.65;15.82;;;3.30;99.90;;;;;;5069013;28;20205;-59
2020/12/08 04:47:45;;;;;;;19.88;14.20;;;3.60;99.90;;;;;;5068656;28;20185;-59
2020/12/08 04:50:17;;;;;;;21.13;14.35;;;3.60;99.90;;;;;;5069030;28;20184;-59
2020/12/08 04:52:43;;;;;;;21.45;15.35;;;3.70;99.90;;;;;;5068767;28;20223;-59
2020/12/08 04:55:09;;;;;;;20.45;14.43;;;3.60;99.90;;;;;;5068768;28;20198;-59
2020/12/08 04:57:35;;;;;;;25.52;15.35;;;3.60;99.90;;;;;;5061364;28;20250;-59
2020/12/08 05:00:06;;;;;;;26.92;16.38;;;3.50;99.90;;;;;;5062367;28;20181;-59
2020/12/08 05:02:32;;;;;;;25.98;15.30;;;3.50;99.90;;;;;;5056495;28;20192;-59
2020/12/08 05:04:57;;;;;;;23.80;15.53;;;3.30;99.90;;;;;;5068219;28;20295;-59
2020/12/08 05:07:27;;;;;;;21.43;14.70;;;3.60;99.90;;;;;;5068326;28;20185;-59
2020/12/08 05:09:54;;;;;;;24.10;15.00;;;3.60;99.90;;;;;;5067975;28;20189;-59
2020/12/08 05:12:24;;;;;;;24.67;15.00;;;3.50;99.90;;;;;;5068167;28;20205;-59
2020/12/08 05:14:50;;;;;;;20.20;14.45;;;3.50;99.90;;;;;;5068060;28;20208;-59
2020/12/08 05:17:20;;;;;;;23.40;15.95;;;3.80;99.90;;;;;;5068602;28;20235;-59
2020/12/08 05:19:46;;;;;;;22.10;13.30;;;3.80;99.90;;;;;;5063858;28;20184;-59
2020/12/08 05:22:12;;;;;;;20.40;14.53;;;3.60;99.90;;;;;;5081523;28;20193;-57
2020/12/08 05:24:38;;;;;;;22.20;15.80;;;3.60;99.90;;;;;;5063310;28;20472;-58
2020/12/08 05:27:05;;;;;;;24.73;15.60;;;3.50;99.90;;;;;;5065821;28;20185;-55
2020/12/08 05:29:32;;;;;;;22.80;14.30;;;3.50;99.90;;;;;;5066336;28;20186;-56
2020/12/08 05:32:29;;;;;;;21.58;15.30;;;3.50;99.90;;;;;;5080957;28;20188;-57
2020/12/08 05:34:55;;;;;;;21.30;14.85;;;3.30;99.90;;;;;;5065499;28;20208;-56
2020/12/08 05:37:22;;;;;;;22.10;14.82;;;3.40;99.90;;;;;;5065383;28;20185;-57
2020/12/08 05:39:48;;;;;;;23.48;15.20;;;3.60;99.90;;;;;;5073753;28;20677;-56
2020/12/08 05:42:20;;;;;;;21.65;14.00;;;3.60;99.90;;;;;;5063276;28;20188;-57
2020/12/08 05:44:47;;;;;;;21.52;15.00;;;3.30;99.90;;;;;;5065385;28;20216;-58
2020/12/08 05:47:18;;;;;;;24.30;15.35;;;2.90;99.90;;;;;;5066540;28;22014;-58
2020/12/08 05:49:44;;;;;;;27.15;16.45;;;3.30;99.90;;;;;;5067658;28;20192;-56
2020/12/08 05:52:09;;;;;;;26.57;16.70;;;3.30;99.90;;;;;;5067245;28;20205;-58
2020/12/08 05:54:35;;;;;;;23.40;16.27;;;3.30;99.90;;;;;;5069612;28;21025;-58
2020/12/08 05:57:14;;;;;;;21.90;15.20;;;3.30;99.90;;;;;;5082690;28;20185;-57
2020/12/08 05:59:39;;;;;;;24.02;15.20;;;3.40;99.90;;;;;;5065846;28;20268;-58
2020/12/08 06:02:05;;;;;;;26.20;16.17;;;3.70;99.90;;;;;;5064741;28;20331;-56
2020/12/08 06:04:43;;;;;;;26.93;15.33;;;3.60;99.90;;;;;;5066321;28;20279;-56
2020/12/08 06:07:09;;;;;;;20.83;13.93;;;3.50;99.90;;;;;;5058893;28;20234;-56
2020/12/08 06:09:35;;;;;;;25.40;15.40;;;3.70;99.90;;;;;;5074626;28;20212;-57
2020/12/08 06:12:02;;;;;;;22.92;15.32;;;3.40;99.90;;;;;;5066733;28;20184;-55
2020/12/08 06:14:31;;;;;;;26.38;16.30;;;3.50;99.90;;;;;;5082130;28;20185;-55
2020/12/08 06:17:05;;;;;;;24.33;15.77;;;3.30;99.90;;;;;;5063173;28;20208;-56
2020/12/08 06:19:32;;;;;;;27.38;18.40;;;3.30;99.90;;;;;;5074323;28;20173;-57
2020/12/08 06:21:58;;;;;;;25.95;15.55;;;3.30;99.90;;;;;;5064940;28;20185;-57
2020/12/08 06:24:24;;;;;;;23.83;16.52;;;3.50;99.90;;;;;;5068789;28;20211;-57
2020/12/08 06:26:50;;;;;;;23.20;16.07;;;3.70;99.90;;;;;;5071530;28;20185;-57
2020/12/08 06:29:15;;;;;;;25.43;16.10;;;3.60;99.90;;;;;;5066726;28;20435;-57
2020/12/08 06:31:49;;;;;;;25.27;16.43;;;3.90;99.90;;;;;;5069182;28;20334;-58
2020/12/08 06:34:25;;;;;;;23.25;15.45;;;3.70;99.90;;;;;;5070176;28;20228;-58
2020/12/08 06:36:51;;;;;;;22.92;14.93;;;4.40;99.90;;;;;;5086944;28;20184;-59
2020/12/08 06:39:16;;;;;;;27.60;16.77;;;4.10;99.90;;;;;;5070729;28;20229;-59
2020/12/08 06:41:44;;;;;;;23.43;15.57;;;4.10;99.90;;;;;;5071083;28;20434;-59
2020/12/08 06:44:19;;;;;;;23.35;15.80;;;3.90;99.90;;;;;;5064457;28;20216;-61
2020/12/08 06:46:55;;;;;;;25.65;15.50;;;3.90;99.90;;;;;;5068440;28;20184;-60
2020/12/08 06:49:21;;;;;;;24.65;16.38;;;3.80;99.90;;;;;;5069353;28;20196;-60
2020/12/08 06:51:56;;;;;;;27.27;17.40;;;3.80;99.90;;;;;;5071580;28;20199;-58
2020/12/08 06:54:24;;;;;;;22.33;14.43;;;3.10;99.90;;;;;;5076372;28;20609;-59
2020/12/08 06:56:50;;;;;;;25.15;15.57;;;3.70;99.90;;;;;;5069958;28;20657;-59
2020/12/08 06:59:25;;;;;;;26.30;16.67;;;3.60;99.90;;;;;;5070032;28;20185;-59
2020/12/08 07:01:52;;;;;;;26.38;17.08;;;3.40;99.90;;;;;;5075207;28;20183;-60
2020/12/08 07:04:19;;;;;;;22.30;15.50;;;3.60;99.90;;;;;;5076825;28;20181;-60
2020/12/08 07:06:45;;;;;;;25.50;17.88;;;3.70;99.90;;;;;;5069404;28;20735;-60
2020/12/08 07:09:11;;;;;;;24.77;15.73;;;4.20;99.90;;;;;;5070006;28;20274;-61
2020/12/08 07:11:37;;;;;;;22.63;16.35;;;3.70;99.90;;;;;;5076384;28;20196;-60
2020/12/08 07:14:07;;;;;;;28.07;16.43;;;3.50;99.90;;;;;;5073212;28;20217;-59
2020/12/08 07:16:34;;;;;;;30.25;15.98;;;3.20;99.90;;;;;;5069843;28;20451;-60
2020/12/08 07:19:01;;;;;;;27.77;17.33;;;3.50;99.90;;;;;;5070022;28;20646;-59
2020/12/08 07:21:27;;;;;;;26.00;18.00;;;2.60;99.90;;;;;;5070052;28;20189;-58
2020/12/08 07:23:54;;;;;;;25.58;16.58;;;3.20;99.90;;;;;;5069539;28;20199;-60
2020/12/08 07:26:28;;;;;;;24.40;15.60;;;2.90;99.90;;;;;;5069040;28;20205;-58
2020/12/08 07:28:55;;;;;;;26.42;18.17;;;3.50;99.90;;;;;;5064259;28;20217;-60
2020/12/08 07:31:23;;;;;;;28.63;17.50;;;3.40;99.90;;;;;;5069320;28;20872;-61
2020/12/08 07:33:49;;;;;;;26.25;17.95;;;3.60;99.90;;;;;;5070540;28;20235;-63
2020/12/08 07:36:30;;;;;;;28.50;18.70;;;3.40;99.90;;;;;;5069562;28;20205;-58
2020/12/08 07:38:57;;;;;;;27.45;18.23;;;3.20;99.90;;;;;;5071516;28;20254;-59
2020/12/08 07:41:30;;;;;;;28.58;17.95;;;3.60;99.90;;;;;;5069806;28;20185;-58
2020/12/08 07:43:57;;;;;;;30.38;16.67;;;3.40;99.90;;;;;;5066423;28;20181;-58
2020/12/08 07:46:31;;;;;;;24.48;16.85;;;3.60;99.90;;;;;;5076547;28;20560;-59
2020/12/08 07:48:59;;;;;;;25.92;16.73;;;3.60;99.90;;;;;;5077977;28;20654;-62
2020/12/08 07:51:27;;;;;;;26.58;17.65;;;3.60;99.90;;;;;;5068742;28;20617;-58
2020/12/08 07:53:52;;;;;;;25.58;16.23;;;3.30;99.90;;;;;;5071067;28;20639;-63
2020/12/08 07:56:26;;;;;;;27.13;18.63;;;3.30;99.90;;;;;;5084907;28;20288;-61
2020/12/08 07:58:52;;;;;;;24.13;17.75;;;3.60;99.90;;;;;;5079205;28;20648;-58
2020/12/08 08:01:17;;;;;;;25.03;16.43;;;3.10;99.90;;;;;;5067840;28;20205;-59
2020/12/08 08:03:43;;;;;;;26.80;16.27;;;3.70;99.90;;;;;;5073150;28;20731;-59
2020/12/08 08:06:18;;;;;;;24.80;16.00;;;3.70;99.90;;;;;;5068698;28;20252;-59
2020/12/08 08:08:48;;;;;;;27.95;18.45;;;3.60;99.90;;;;;;5070367;28;20435;-59
2020/12/08 08:11:14;;;;;;;25.98;17.55;;;3.40;99.90;;;;;;5069162;28;20181;-59
2020/12/08 08:13:40;;;;;;;25.05;16.48;;;3.40;99.90;;;;;;5069428;28;20197;-58
2020/12/08 08:16:13;;;;;;;24.47;17.20;;;3.40;99.90;;;;;;5067980;28;20211;-59
2020/12/08 08:18:40;;;;;;;29.45;17.85;;;3.00;99.90;;;;;;5068882;28;20230;-59
2020/12/08 08:21:06;;;;;;;33.35;19.52;;;3.40;99.90;;;;;;5068894;28;20192;-59
2020/12/08 08:23:32;;;;;;;33.55;19.45;;;3.30;99.90;;;;;;5068246;28;20297;-60
2020/12/08 08:25:58;;;;;;;28.13;18.37;;;3.20;99.90;;;;;;5068107;28;20677;-59
2020/12/08 08:28:25;;;;;;;25.67;16.40;;;3.10;99.90;;;;;;5067385;28;20577;-60
2020/12/08 08:30:51;;;;;;;24.80;17.00;;;3.30;99.90;;;;;;5069475;28;20185;-59
2020/12/08 08:33:17;;;;;;;29.45;18.90;;;3.40;99.90;;;;;;5074042;28;20197;-61
2020/12/08 08:35:43;;;;;;;28.30;17.80;;;3.40;99.90;;;;;;5067352;28;20209;-60
2020/12/08 08:38:09;;;;;;;25.85;18.00;;;3.40;99.90;;;;;;5084714;28;20984;-60
2020/12/08 08:40:35;;;;;;;28.07;18.43;;;3.10;99.90;;;;;;5068776;28;20189;-59
2020/12/08 08:43:00;;;;;;;27.30;18.33;;;3.30;99.90;;;;;;5070962;28;20176;-57
2020/12/08 08:45:27;;;;;;;26.93;17.67;;;3.10;99.90;;;;;;5067808;28;20208;-56
2020/12/08 08:47:53;;;;;;;25.13;17.83;;;3.30;99.90;;;;;;5068243;28;20252;-58
2020/12/08 08:50:18;;;;;;;27.73;18.30;;;3.40;99.90;;;;;;5068043;28;20185;-58
2020/12/08 08:52:44;;;;;;;27.90;17.40;;;3.50;99.90;;;;;;5068291;28;20293;-56
2020/12/08 08:55:10;;;;;;;26.20;18.80;;;3.70;99.90;;;;;;5067914;28;20198;-58
2020/12/08 08:57:37;;;;;;;25.17;17.15;;;3.60;99.90;;;;;;5068612;28;20432;-58
2020/12/08 09:00:08;;;;;;;30.63;20.73;;;3.60;99.90;;;;;;5068244;28;20185;-61
2020/12/08 09:02:34;;;;;;;28.08;19.02;;;3.50;99.90;;;;;;5071978;28;20180;-60
2020/12/08 09:05:00;;;;;;;34.65;24.15;;;3.50;99.90;;;;;;5065909;28;20263;-59
2020/12/08 09:07:28;;;;;;;28.40;19.73;;;3.70;99.90;;;;;;5067653;28;20177;-60
2020/12/08 09:09:55;;;;;;;24.10;17.10;;;3.70;99.90;;;;;;5063859;28;20865;-60
2020/12/08 09:12:20;;;;;;;24.80;18.30;;;4.00;99.90;;;;;;5068954;28;20236;-59
2020/12/08 09:14:47;;;;;;;25.00;16.20;;;4.30;99.90;;;;;;5067054;28;20662;-61
2020/12/08 09:17:12;;;;;;;25.02;17.20;;;4.20;99.90;;;;;;5067117;28;20607;-60
2020/12/08 09:19:38;;;;;;;29.70;17.53;;;4.30;99.90;;;;;;5078890;28;20180;-60
2020/12/08 09:22:06;;;;;;;23.77;17.63;;;4.20;99.90;;;;;;5069119;28;20193;-60
2020/12/08 09:24:31;;;;;;;22.40;16.10;;;4.60;99.90;;;;;;5068423;28;20591;-61
2020/12/08 09:26:57;;;;;;;24.33;17.53;;;4.60;99.90;;;;;;5077373;28;20195;-61
2020/12/08 09:29:24;;;;;;;25.42;17.45;;;4.70;99.90;;;;;;5068412;28;20431;-62
2020/12/08 09:31:54;;;;;;;25.95;17.13;;;4.70;99.90;;;;;;5064588;28;20190;-61
2020/12/08 09:34:20;;;;;;;25.75;17.55;;;5.00;99.90;;;;;;5066664;28;20221;-61
2020/12/08 09:36:50;;;;;;;25.17;17.00;;;4.90;99.90;;;;;;5067858;28;20187;-60
2020/12/08 09:39:17;;;;;;;24.77;17.17;;;5.30;99.90;;;;;;5067256;28;20910;-59
2020/12/08 09:41:43;;;;;;;25.95;17.23;;;5.40;99.90;;;;;;5077737;28;20202;-60
2020/12/08 09:44:11;;;;;;;27.05;18.58;;;5.40;99.90;;;;;;5072307;28;20181;-58
2020/12/08 09:46:38;;;;;;;27.20;17.92;;;5.40;99.90;;;;;;5064486;28;20284;-58
2020/12/08 09:49:04;;;;;;;24.13;16.40;;;5.30;99.90;;;;;;5068831;28;20287;-58
2020/12/08 09:51:30;;;;;;;24.58;17.00;;;5.20;99.90;;;;;;5066989;28;20272;-61
2020/12/08 09:53:56;;;;;;;23.33;15.98;;;5.60;99.90;;;;;;5067196;28;20596;-61
2020/12/08 09:56:22;;;;;;;23.35;16.73;;;5.90;99.90;;;;;;5073645;28;20214;-63
2020/12/08 09:58:48;;;;;;;23.67;16.53;;;5.80;99.90;;;;;;5079763;28;20583;-60
2020/12/08 10:01:13;;;;;;;26.03;17.13;;;6.20;99.90;;;;;;5079502;28;20815;-57
2020/12/08 10:03:39;;;;;;;20.87;15.60;;;5.90;99.90;;;;;;5065910;28;20227;-59
2020/12/08 10:06:05;;;;;;;22.73;15.83;;;6.00;99.90;;;;;;5066453;28;20295;-59
2020/12/08 10:08:30;;;;;;;20.93;14.20;;;6.10;99.90;;;;;;5065804;28;20184;-61
2020/12/08 10:10:56;;;;;;;20.88;14.90;;;6.50;99.90;;;;;;5067953;28;20202;-60
2020/12/08 10:13:22;;;;;;;23.30;16.23;;;6.40;99.90;;;;;;5066629;28;20208;-60
2020/12/08 10:15:47;;;;;;;20.80;16.10;;;7.00;99.50;;;;;;5054023;28;20210;-63
2020/12/08 10:18:13;;;;;;;23.00;15.63;;;7.20;99.40;;;;;;5066265;28;20658;-60
2020/12/08 10:20:39;;;;;;;19.87;15.30;;;7.00;99.60;;;;;;5072557;28;20205;-60
2020/12/08 10:23:06;;;;;;;22.47;15.70;;;7.10;98.60;;;;;;5067822;28;20795;-61
2020/12/08 10:25:33;;;;;;;20.08;14.95;;;7.10;98.50;;;;;;5068765;28;20239;-59
2020/12/08 10:28:01;;;;;;;24.80;16.25;;;6.60;98.90;;;;;;5075374;28;20590;-61
2020/12/08 10:30:27;;;;;;;20.83;14.70;;;7.00;99.20;;;;;;5086050;28;20176;-61
2020/12/08 10:32:52;;;;;;;17.73;13.40;;;7.40;98.00;;;;;;5062162;28;20208;-59
2020/12/08 10:35:18;;;;;;;19.37;13.60;;;7.60;96.60;;;;;;5067526;28;20224;-62
2020/12/08 10:37:44;;;;;;;18.23;13.53;;;8.50;95.90;;;;;;5075472;28;20678;-60
2020/12/08 10:40:09;;;;;;;19.80;14.80;;;9.50;94.00;;;;;;5064840;28;20723;-60
2020/12/08 10:42:35;;;;;;;17.60;13.90;;;9.90;92.30;;;;;;5065698;28;20439;-57
2020/12/08 10:45:01;;;;;;;21.57;14.23;;;10.90;90.00;;;;;;5077295;28;20242;-57
2020/12/08 10:47:27;;;;;;;22.10;16.57;;;11.50;85.70;;;;;;5066328;28;20197;-57
2020/12/08 10:49:54;;;;;;;21.88;15.10;;;12.00;85.20;;;;;;5093886;28;20239;-57
2020/12/08 10:52:20;;;;;;;18.40;15.10;;;11.80;83.90;;;;;;5075092;28;20251;-59
2020/12/08 10:54:46;;;;;;;22.10;16.33;;;11.60;82.10;;;;;;5071727;28;20195;-58
2020/12/08 10:57:12;;;;;;;19.37;15.10;;;10.90;84.30;;;;;;5079728;28;20212;-58
2020/12/08 10:59:37;;;;;;;21.63;15.53;;;10.70;84.30;;;;;;5070050;28;20203;-59
2020/12/08 11:02:03;;;;;;;18.90;15.10;;;10.50;85.70;;;;;;5076817;28;20181;-58
2020/12/08 11:04:29;;;;;;;22.17;15.80;;;9.30;89.50;;;;;;5067977;28;20192;-59
2020/12/08 11:06:58;;;;;;;21.95;15.90;;;9.10;91.00;;;;;;5066162;28;20192;-59
2020/12/08 11:09:25;;;;;;;24.10;17.20;;;9.00;91.60;;;;;;5066086;28;20235;-60
2020/12/08 11:11:51;;;;;;;22.90;17.42;;;8.70;92.00;;;;;;5065437;28;20181;-59
2020/12/08 11:14:16;;;;;;;24.53;16.30;;;8.30;92.70;;;;;;5065922;28;20576;-59
2020/12/08 11:16:42;;;;;;;21.10;15.57;;;8.20;93.40;;;;;;5069403;28;20200;-60
2020/12/08 11:19:08;;;;;;;21.77;15.10;;;7.70;93.50;;;;;;5071821;28;20220;-62
2020/12/08 11:21:35;;;;;;;20.50;14.90;;;7.60;94.30;;;;;;5075055;28;20194;-62
2020/12/08 11:24:01;;;;;;;22.55;15.77;;;7.40;94.00;;;;;;5069104;28;20185;-61
2020/12/08 11:26:28;;;;;;;21.77;15.80;;;7.70;94.40;;;;;;5069772;28;20208;-61
2020/12/08 11:28:54;;;;;;;24.70;16.42;;;7.50;95.50;;;;;;5069420;28;20951;-61
2020/12/08 11:31:20;;;;;;;20.40;16.47;;;7.10;95.00;;;;;;5068477;28;20197;-61
2020/12/08 11:33:46;;;;;;;22.02;15.88;;;7.10;96.10;;;;;;5078746;28;20916;-60
2020/12/08 11:36:13;;;;;;;21.25;16.15;;;7.10;96.10;;;;;;5069922;28;20749;-61
2020/12/08 11:38:38;;;;;;;18.15;14.70;;;7.50;96.00;;;;;;5069782;28;20669;-61
2020/12/08 11:41:04;;;;;;;21.47;16.00;;;7.40;95.80;;;;;;5071122;28;20185;-61
2020/12/08 11:43:31;;;;;;;19.10;14.87;;;7.30;96.00;;;;;;5070252;28;20457;-61
2020/12/08 11:45:57;;;;;;;19.40;14.85;;;7.30;95.70;;;;;;5071014;28;20462;-61
2020/12/08 11:48:23;;;;;;;22.52;15.77;;;7.10;96.00;;;;;;5073667;28;20184;-60
2020/12/08 11:50:53;;;;;;;21.20;15.30;;;7.50;96.20;;;;;;5077419;28;20187;-60
2020/12/08 11:53:18;;;;;;;25.13;15.90;;;7.20;96.00;;;;;;5068538;28;20209;-61
2020/12/08 11:55:44;;;;;;;20.77;15.87;;;7.20;96.50;;;;;;5069721;28;20201;-62
2020/12/08 11:58:10;;;;;;;23.53;14.90;;;7.30;96.00;;;;;;5068873;28;20436;-60
2020/12/08 12:00:36;;;;;;;20.13;14.43;;;7.30;95.90;;;;;;5070349;28;20207;-60
2020/12/08 12:03:01;;;;;;;22.50;15.97;;;7.40;96.10;;;;;;5067555;28;20571;-61
2020/12/08 12:05:27;;;;;;;20.77;15.60;;;7.00;96.40;;;;;;5065449;28;20469;-61
2020/12/08 12:07:52;;;;;;;23.87;15.83;;;6.90;97.00;;;;;;5067274;28;20203;-61
2020/12/08 12:10:18;;;;;;;27.13;15.73;;;7.30;96.70;;;;;;5067505;28;20790;-61
2020/12/08 12:12:43;;;;;;;21.23;15.03;;;7.30;96.40;;;;;;5066881;28;20214;-57
2020/12/08 12:15:09;;;;;;;21.90;16.50;;;7.20;96.20;;;;;;5067696;28;21116;-58
2020/12/08 12:17:35;;;;;;;19.80;14.67;;;7.10;96.50;;;;;;5068706;28;20177;-57
2020/12/08 12:20:00;;;;;;;19.73;13.97;;;7.30;96.40;;;;;;5069659;28;20234;-60
2020/12/08 12:22:26;;;;;;;29.50;15.77;;;7.40;96.50;;;;;;5069856;28;20700;-58
2020/12/08 12:24:55;;;;;;;21.85;14.52;;;7.30;96.10;;;;;;5067519;28;20522;-58
2020/12/08 12:27:21;;;;;;;17.70;13.75;;;7.50;96.00;;;;;;5064069;28;20311;-57
2020/12/08 12:29:47;;;;;;;19.20;14.10;;;7.10;96.10;;;;;;5065114;28;20678;-58
2020/12/08 12:32:14;;;;;;;17.80;12.43;;;7.50;96.40;;;;;;5067940;28;20192;-58
2020/12/08 12:34:40;;;;;;;17.65;13.80;;;7.20;95.80;;;;;;5077360;28;20465;-58